createdAt,value
2017-12-31T00:00:15.011Z,986.92
2017-12-31T00:01:15.012Z,986.93
2017-12-31T00:02:15.012Z,986.92
2017-12-31T00:03:15.012Z,986.99
2017-12-31T00:04:15.008Z,986.99
2017-12-31T00:05:15.014Z,987.00
2017-12-31T00:06:15.007Z,987.01
2017-12-31T00:07:15.002Z,987.06
2017-12-31T00:08:15.010Z,987.00
2017-12-31T00:09:15.002Z,987.06
2017-12-31T00:10:15.010Z,987.13
2017-12-31T00:11:14.996Z,987.06
2017-12-31T00:12:14.997Z,987.10
2017-12-31T00:13:14.994Z,987.12
2017-12-31T00:14:14.996Z,987.16
2017-12-31T00:15:14.996Z,987.18
2017-12-31T00:16:14.997Z,987.09
2017-12-31T00:17:14.987Z,987.18
2017-12-31T00:18:14.987Z,987.14
2017-12-31T00:19:14.985Z,987.22
2017-12-31T00:20:15.024Z,987.18
2017-12-31T00:21:14.984Z,987.27
2017-12-31T00:22:14.983Z,987.26
2017-12-31T00:23:14.978Z,987.25
2017-12-31T00:24:14.985Z,987.32
2017-12-31T00:25:14.985Z,987.30
2017-12-31T00:26:14.976Z,987.29
2017-12-31T00:27:14.979Z,987.26
2017-12-31T00:28:14.973Z,987.31
2017-12-31T00:29:14.976Z,987.38
2017-12-31T00:30:14.971Z,987.41
2017-12-31T00:31:14.995Z,987.41
2017-12-31T00:32:15.008Z,987.40
2017-12-31T00:33:14.964Z,987.43
2017-12-31T00:34:15.717Z,987.50
2017-12-31T00:35:14.966Z,987.44
2017-12-31T00:36:14.961Z,987.44
2017-12-31T00:37:14.962Z,987.44
2017-12-31T00:38:14.959Z,987.49
2017-12-31T00:39:14.960Z,987.48
2017-12-31T00:40:14.968Z,987.58
2017-12-31T00:41:14.956Z,987.52
2017-12-31T00:42:14.958Z,987.65
2017-12-31T00:43:14.955Z,987.73
2017-12-31T00:44:14.959Z,987.71
2017-12-31T00:45:14.952Z,987.74
2017-12-31T00:46:14.954Z,987.79
2017-12-31T00:47:14.950Z,987.65
2017-12-31T00:48:14.955Z,987.71
2017-12-31T00:49:14.947Z,987.73
2017-12-31T00:50:14.948Z,987.75
2017-12-31T00:51:14.945Z,987.73
2017-12-31T00:52:14.943Z,987.77
2017-12-31T00:53:14.940Z,987.70
2017-12-31T00:54:14.942Z,987.69
2017-12-31T00:55:14.939Z,987.69
2017-12-31T00:56:14.938Z,987.76
2017-12-31T00:57:14.938Z,987.84
2017-12-31T00:58:14.938Z,987.76
2017-12-31T00:59:14.934Z,987.84
2017-12-31T01:00:14.997Z,987.77
2017-12-31T01:01:14.933Z,987.87
2017-12-31T01:02:14.946Z,987.86
2017-12-31T01:03:14.931Z,987.91
2017-12-31T01:04:14.930Z,987.95
2017-12-31T01:05:14.927Z,987.94
2017-12-31T01:06:14.926Z,987.97
2017-12-31T01:07:14.979Z,987.99
2017-12-31T01:08:14.925Z,987.94
2017-12-31T01:09:14.925Z,987.95
2017-12-31T01:10:14.922Z,987.96
2017-12-31T01:11:14.924Z,987.96
2017-12-31T01:12:15.025Z,987.93
2017-12-31T01:13:14.927Z,987.89
2017-12-31T01:14:14.918Z,987.93
2017-12-31T01:15:14.940Z,987.98
2017-12-31T01:16:14.916Z,987.99
2017-12-31T01:17:14.915Z,988.00
2017-12-31T01:18:14.914Z,987.91
2017-12-31T01:19:14.928Z,987.96
2017-12-31T01:20:14.914Z,987.95
2017-12-31T01:21:14.910Z,988.01
2017-12-31T01:22:14.909Z,988.07
2017-12-31T01:23:14.912Z,988.13
2017-12-31T01:24:14.905Z,988.16
2017-12-31T01:25:14.908Z,988.14
2017-12-31T01:26:14.905Z,988.19
2017-12-31T01:27:14.904Z,988.16
2017-12-31T01:28:14.901Z,988.18
2017-12-31T01:29:14.900Z,988.18
2017-12-31T01:30:14.899Z,988.17
2017-12-31T01:31:14.923Z,988.16
2017-12-31T01:32:14.902Z,988.20
2017-12-31T01:33:14.896Z,988.15
2017-12-31T01:34:14.895Z,988.13
2017-12-31T01:35:14.903Z,988.20
2017-12-31T01:36:14.892Z,988.19
2017-12-31T01:37:14.891Z,988.24
2017-12-31T01:38:14.904Z,988.26
2017-12-31T01:39:14.893Z,988.28
2017-12-31T01:40:14.887Z,988.29
2017-12-31T01:41:14.895Z,988.25
2017-12-31T01:42:14.885Z,988.30
2017-12-31T01:43:14.882Z,988.32
2017-12-31T01:44:14.883Z,988.35
2017-12-31T01:45:14.880Z,988.31
2017-12-31T01:46:14.879Z,988.34
2017-12-31T01:47:14.875Z,988.31
2017-12-31T01:48:14.876Z,988.35
2017-12-31T01:49:14.876Z,988.40
2017-12-31T01:50:14.871Z,988.36
2017-12-31T01:51:14.870Z,988.34
2017-12-31T01:52:14.869Z,988.31
2017-12-31T01:53:14.866Z,988.30
2017-12-31T01:54:14.868Z,988.31
2017-12-31T01:55:14.880Z,988.32
2017-12-31T01:56:14.876Z,988.33
2017-12-31T01:57:14.871Z,988.37
2017-12-31T01:58:14.863Z,988.35
2017-12-31T01:59:14.860Z,988.38
2017-12-31T02:00:14.871Z,988.39
2017-12-31T02:01:14.856Z,988.38
2017-12-31T02:02:14.858Z,988.35
2017-12-31T02:03:14.854Z,988.39
2017-12-31T02:04:14.855Z,988.40
2017-12-31T02:05:14.851Z,988.39
2017-12-31T02:06:14.854Z,988.40
2017-12-31T02:07:14.851Z,988.44
2017-12-31T02:08:14.849Z,988.46
2017-12-31T02:09:14.846Z,988.50
2017-12-31T02:10:14.849Z,988.55
2017-12-31T02:11:14.846Z,988.54
2017-12-31T02:12:14.844Z,988.54
2017-12-31T02:13:14.861Z,988.56
2017-12-31T02:14:14.840Z,988.52
2017-12-31T02:15:14.841Z,988.61
2017-12-31T02:16:14.839Z,988.63
2017-12-31T02:17:14.837Z,988.65
2017-12-31T02:18:14.837Z,988.61
2017-12-31T02:19:14.836Z,988.64
2017-12-31T02:20:14.843Z,988.61
2017-12-31T02:21:14.833Z,988.67
2017-12-31T02:22:14.832Z,988.69
2017-12-31T02:23:14.831Z,988.66
2017-12-31T02:24:14.839Z,988.64
2017-12-31T02:25:14.826Z,988.66
2017-12-31T02:26:14.827Z,988.66
2017-12-31T02:27:14.827Z,988.70
2017-12-31T02:28:14.825Z,988.68
2017-12-31T02:29:14.822Z,988.66
2017-12-31T02:30:14.826Z,988.70
2017-12-31T02:31:14.823Z,988.74
2017-12-31T02:32:14.821Z,988.73
2017-12-31T02:33:14.830Z,988.71
2017-12-31T02:34:14.834Z,988.69
2017-12-31T02:35:14.818Z,988.76
2017-12-31T02:36:14.816Z,988.75
2017-12-31T02:37:14.818Z,988.73
2017-12-31T02:38:14.815Z,988.79
2017-12-31T02:39:14.814Z,988.81
2017-12-31T02:40:14.813Z,988.81
2017-12-31T02:41:14.813Z,988.82
2017-12-31T02:42:14.808Z,988.79
2017-12-31T02:43:14.807Z,988.82
2017-12-31T02:44:14.821Z,988.80
2017-12-31T02:45:14.821Z,988.80
2017-12-31T02:46:14.803Z,988.81
2017-12-31T02:47:14.804Z,988.76
2017-12-31T02:48:14.812Z,988.81
2017-12-31T02:49:14.807Z,988.81
2017-12-31T02:50:14.804Z,988.87
2017-12-31T02:51:14.803Z,988.82
2017-12-31T02:52:14.795Z,988.78
2017-12-31T02:53:14.797Z,988.77
2017-12-31T02:54:14.796Z,988.80
2017-12-31T02:55:14.797Z,988.74
2017-12-31T02:56:14.794Z,988.79
2017-12-31T02:57:14.792Z,988.79
2017-12-31T02:58:14.794Z,988.84
2017-12-31T02:59:14.789Z,988.81
2017-12-31T03:00:14.792Z,988.81
2017-12-31T03:01:14.789Z,988.84
2017-12-31T03:02:14.786Z,988.86
2017-12-31T03:03:14.787Z,988.84
2017-12-31T03:04:14.783Z,988.90
2017-12-31T03:05:14.780Z,988.93
2017-12-31T03:06:14.781Z,988.94
2017-12-31T03:07:14.784Z,988.97
2017-12-31T03:08:14.792Z,988.99
2017-12-31T03:09:14.778Z,988.97
2017-12-31T03:10:14.777Z,988.99
2017-12-31T03:11:14.778Z,988.97
2017-12-31T03:12:14.772Z,989.02
2017-12-31T03:13:14.771Z,988.99
2017-12-31T03:14:14.776Z,988.97
2017-12-31T03:15:14.771Z,989.04
2017-12-31T03:16:14.771Z,989.02
2017-12-31T03:17:14.779Z,989.05
2017-12-31T03:18:14.765Z,989.05
2017-12-31T03:19:14.765Z,989.07
2017-12-31T03:20:14.764Z,989.08
2017-12-31T03:21:14.761Z,989.09
2017-12-31T03:22:14.763Z,989.05
2017-12-31T03:23:14.763Z,989.13
2017-12-31T03:24:14.761Z,989.11
2017-12-31T03:25:14.758Z,989.11
2017-12-31T03:26:14.756Z,989.16
2017-12-31T03:27:14.762Z,989.20
2017-12-31T03:28:14.755Z,989.22
2017-12-31T03:29:14.773Z,989.24
2017-12-31T03:30:14.754Z,989.21
2017-12-31T03:31:14.757Z,989.23
2017-12-31T03:32:14.750Z,989.21
2017-12-31T03:33:14.750Z,989.29
2017-12-31T03:34:14.747Z,989.26
2017-12-31T03:35:14.748Z,989.32
2017-12-31T03:36:14.745Z,989.30
2017-12-31T03:37:14.744Z,989.27
2017-12-31T03:38:14.742Z,989.27
2017-12-31T03:39:14.744Z,989.32
2017-12-31T03:40:14.742Z,989.36
2017-12-31T03:41:14.739Z,989.30
2017-12-31T03:42:14.738Z,989.39
2017-12-31T03:43:14.736Z,989.21
2017-12-31T03:44:14.733Z,989.29
2017-12-31T03:45:14.732Z,989.25
2017-12-31T03:46:14.733Z,989.26
2017-12-31T03:47:14.733Z,989.27
2017-12-31T03:48:14.730Z,989.29
2017-12-31T03:49:14.736Z,989.32
2017-12-31T03:50:14.727Z,989.32
2017-12-31T03:51:14.733Z,989.33
2017-12-31T03:52:14.730Z,989.34
2017-12-31T03:53:14.731Z,989.37
2017-12-31T03:54:14.721Z,989.37
2017-12-31T03:55:14.725Z,989.32
2017-12-31T03:56:14.715Z,989.36
2017-12-31T03:57:14.717Z,989.32
2017-12-31T03:58:14.715Z,989.35
2017-12-31T03:59:14.720Z,989.32
2017-12-31T04:00:14.712Z,989.34
2017-12-31T04:01:14.714Z,989.33
2017-12-31T04:02:14.712Z,989.34
2017-12-31T04:03:14.708Z,989.35
2017-12-31T04:04:14.705Z,989.37
2017-12-31T04:05:14.702Z,989.34
2017-12-31T04:06:14.711Z,989.32
2017-12-31T04:07:14.702Z,989.32
2017-12-31T04:08:14.712Z,989.36
2017-12-31T04:09:14.698Z,989.34
2017-12-31T04:10:14.709Z,989.38
2017-12-31T04:11:14.700Z,989.34
2017-12-31T04:12:14.697Z,989.37
2017-12-31T04:13:14.698Z,989.36
2017-12-31T04:14:14.688Z,989.36
2017-12-31T04:15:14.694Z,989.35
2017-12-31T04:16:14.686Z,989.28
2017-12-31T04:17:14.690Z,989.34
2017-12-31T04:18:35.691Z,989.33
2017-12-31T04:19:14.680Z,989.36
2017-12-31T04:20:14.676Z,989.38
2017-12-31T04:21:14.677Z,989.34
2017-12-31T04:22:14.673Z,989.35
2017-12-31T04:23:14.677Z,989.32
2017-12-31T04:24:14.671Z,989.33
2017-12-31T04:25:14.676Z,989.32
2017-12-31T04:26:14.667Z,989.35
2017-12-31T04:27:14.677Z,989.27
2017-12-31T04:28:14.664Z,989.31
2017-12-31T04:29:14.662Z,989.28
2017-12-31T04:30:14.660Z,989.29
2017-12-31T04:31:14.660Z,989.27
2017-12-31T04:32:14.654Z,989.28
2017-12-31T04:33:14.655Z,989.29
2017-12-31T04:34:14.651Z,989.28
2017-12-31T04:35:14.651Z,989.25
2017-12-31T04:36:14.647Z,989.23
2017-12-31T04:37:14.644Z,989.22
2017-12-31T04:38:14.642Z,989.28
2017-12-31T04:39:14.642Z,989.24
2017-12-31T04:40:14.638Z,989.25
2017-12-31T04:41:14.639Z,989.28
2017-12-31T04:42:14.640Z,989.27
2017-12-31T04:43:14.633Z,989.23
2017-12-31T04:44:14.633Z,989.24
2017-12-31T04:45:14.630Z,989.25
2017-12-31T04:46:14.627Z,989.22
2017-12-31T04:47:14.628Z,989.25
2017-12-31T04:48:14.621Z,989.26
2017-12-31T04:49:14.622Z,989.31
2017-12-31T04:50:14.620Z,989.32
2017-12-31T04:51:14.622Z,989.37
2017-12-31T04:52:14.613Z,989.40
2017-12-31T04:53:14.614Z,989.36
2017-12-31T04:54:14.613Z,989.34
2017-12-31T04:55:14.620Z,989.36
2017-12-31T04:56:14.604Z,989.40
2017-12-31T04:57:14.606Z,989.44
2017-12-31T04:58:14.602Z,989.45
2017-12-31T04:59:14.599Z,989.44
2017-12-31T05:00:14.595Z,989.45
2017-12-31T05:01:14.594Z,989.40
2017-12-31T05:02:14.594Z,989.38
2017-12-31T05:03:14.591Z,989.37
2017-12-31T05:04:14.590Z,989.36
2017-12-31T05:05:14.585Z,989.34
2017-12-31T05:06:14.582Z,989.33
2017-12-31T05:07:14.581Z,989.37
2017-12-31T05:08:14.577Z,989.36
2017-12-31T05:09:14.578Z,989.37
2017-12-31T05:10:14.577Z,989.40
2017-12-31T05:11:14.580Z,989.40
2017-12-31T05:12:14.570Z,989.43
2017-12-31T05:13:14.568Z,989.43
2017-12-31T05:14:14.564Z,989.38
2017-12-31T05:15:14.563Z,989.40
2017-12-31T05:16:14.561Z,989.41
2017-12-31T05:17:14.559Z,989.40
2017-12-31T05:18:14.555Z,989.38
2017-12-31T05:19:14.554Z,989.36
2017-12-31T05:20:14.552Z,989.38
2017-12-31T05:21:14.548Z,989.40
2017-12-31T05:22:14.546Z,989.36
2017-12-31T05:23:14.544Z,989.38
2017-12-31T05:24:14.541Z,989.40
2017-12-31T05:25:14.538Z,989.39
2017-12-31T05:26:14.540Z,989.42
2017-12-31T05:27:14.537Z,989.42
2017-12-31T05:28:14.532Z,989.41
2017-12-31T05:29:14.528Z,989.42
2017-12-31T05:30:14.531Z,989.40
2017-12-31T05:31:14.529Z,989.43
2017-12-31T05:32:14.526Z,989.48
2017-12-31T05:33:14.519Z,989.45
2017-12-31T05:34:14.519Z,989.47
2017-12-31T05:35:14.518Z,989.51
2017-12-31T05:36:14.524Z,989.48
2017-12-31T05:37:14.511Z,989.47
2017-12-31T05:38:14.507Z,989.49
2017-12-31T05:39:14.506Z,989.49
2017-12-31T05:40:14.501Z,989.44
2017-12-31T05:41:14.498Z,989.42
2017-12-31T05:42:14.498Z,989.44
2017-12-31T05:43:14.494Z,989.41
2017-12-31T05:44:14.496Z,989.38
2017-12-31T05:45:14.490Z,989.35
2017-12-31T05:46:14.486Z,989.34
2017-12-31T05:47:14.484Z,989.35
2017-12-31T05:48:14.519Z,989.34
2017-12-31T05:49:14.478Z,989.36
2017-12-31T05:50:14.476Z,989.33
2017-12-31T05:51:14.474Z,989.32
2017-12-31T05:52:14.472Z,989.36
2017-12-31T05:53:14.491Z,989.36
2017-12-31T05:54:14.465Z,989.34
2017-12-31T05:55:14.464Z,989.31
2017-12-31T05:56:14.459Z,989.31
2017-12-31T05:57:14.460Z,989.26
2017-12-31T05:58:14.455Z,989.25
2017-12-31T05:59:14.454Z,989.23
2017-12-31T06:00:14.448Z,989.19
2017-12-31T06:01:14.449Z,989.21
2017-12-31T06:02:14.444Z,989.20
2017-12-31T06:03:14.442Z,989.21
2017-12-31T06:04:14.440Z,989.19
2017-12-31T06:05:14.437Z,989.19
2017-12-31T06:06:14.436Z,989.17
2017-12-31T06:07:14.431Z,989.13
2017-12-31T06:08:14.429Z,989.19
2017-12-31T06:09:14.428Z,989.16
2017-12-31T06:10:14.427Z,989.11
2017-12-31T06:11:14.421Z,989.07
2017-12-31T06:12:14.417Z,989.07
2017-12-31T06:13:14.416Z,989.07
2017-12-31T06:14:14.412Z,989.00
2017-12-31T06:15:14.410Z,989.00
2017-12-31T06:16:14.409Z,989.01
2017-12-31T06:17:14.404Z,989.04
2017-12-31T06:18:14.401Z,989.06
2017-12-31T06:19:14.400Z,989.02
2017-12-31T06:20:14.395Z,989.05
2017-12-31T06:21:14.393Z,989.05
2017-12-31T06:22:14.392Z,989.03
2017-12-31T06:23:14.387Z,989.06
2017-12-31T06:24:14.384Z,989.05
2017-12-31T06:25:14.383Z,989.07
2017-12-31T06:26:14.382Z,989.09
2017-12-31T06:27:14.378Z,989.05
2017-12-31T06:28:14.381Z,989.05
2017-12-31T06:29:14.370Z,989.05
2017-12-31T06:30:14.369Z,989.08
2017-12-31T06:31:14.364Z,989.05
2017-12-31T06:32:14.364Z,989.07
2017-12-31T06:33:14.361Z,989.07
2017-12-31T06:34:14.356Z,989.08
2017-12-31T06:35:14.354Z,989.09
2017-12-31T06:36:14.354Z,989.13
2017-12-31T06:37:14.380Z,989.11
2017-12-31T06:38:14.348Z,989.13
2017-12-31T06:39:14.344Z,989.12
2017-12-31T06:40:14.383Z,989.08
2017-12-31T06:41:14.342Z,989.14
2017-12-31T06:42:14.336Z,989.11
2017-12-31T06:43:14.334Z,989.07
2017-12-31T06:44:14.329Z,989.08
2017-12-31T06:45:14.327Z,989.12
2017-12-31T06:46:14.325Z,989.12
2017-12-31T06:47:14.322Z,989.09
2017-12-31T06:48:14.317Z,989.10
2017-12-31T06:49:14.317Z,989.08
2017-12-31T06:50:14.315Z,989.06
2017-12-31T06:51:14.312Z,989.06
2017-12-31T06:52:14.309Z,989.08
2017-12-31T06:53:14.305Z,989.07
2017-12-31T06:54:14.305Z,989.03
2017-12-31T06:55:14.298Z,989.07
2017-12-31T06:56:14.294Z,989.07
2017-12-31T06:57:14.294Z,989.06
2017-12-31T06:58:14.289Z,989.05
2017-12-31T06:59:14.288Z,988.99
2017-12-31T07:00:14.284Z,989.03
2017-12-31T07:01:14.282Z,988.98
2017-12-31T07:02:14.285Z,988.99
2017-12-31T07:03:14.277Z,989.02
2017-12-31T07:04:14.270Z,989.04
2017-12-31T07:05:14.267Z,989.03
2017-12-31T07:06:14.266Z,989.05
2017-12-31T07:07:14.269Z,989.03
2017-12-31T07:08:14.261Z,989.05
2017-12-31T07:09:14.258Z,989.03
2017-12-31T07:10:14.253Z,989.06
2017-12-31T07:11:14.251Z,989.02
2017-12-31T07:12:14.249Z,989.10
2017-12-31T07:13:14.246Z,989.09
2017-12-31T07:14:14.241Z,989.13
2017-12-31T07:15:14.241Z,989.12
2017-12-31T07:16:14.235Z,989.11
2017-12-31T07:17:14.232Z,989.06
2017-12-31T07:18:14.237Z,989.05
2017-12-31T07:19:14.228Z,989.07
2017-12-31T07:20:14.225Z,989.08
2017-12-31T07:21:14.222Z,989.09
2017-12-31T07:22:14.222Z,989.10
2017-12-31T07:23:14.217Z,989.12
2017-12-31T07:24:14.211Z,989.10
2017-12-31T07:25:14.212Z,989.06
2017-12-31T07:26:14.205Z,989.05
2017-12-31T07:27:14.206Z,989.04
2017-12-31T07:28:14.205Z,989.09
2017-12-31T07:29:14.207Z,989.06
2017-12-31T07:30:14.196Z,989.12
2017-12-31T07:31:14.200Z,989.10
2017-12-31T07:32:14.188Z,989.16
2017-12-31T07:33:14.187Z,989.15
2017-12-31T07:34:14.183Z,989.13
2017-12-31T07:35:14.182Z,989.14
2017-12-31T07:36:14.183Z,989.13
2017-12-31T07:37:14.174Z,989.09
2017-12-31T07:38:14.177Z,989.12
2017-12-31T07:39:14.170Z,989.18
2017-12-31T07:40:14.166Z,989.19
2017-12-31T07:41:14.163Z,989.16
2017-12-31T07:42:14.160Z,989.15
2017-12-31T07:43:14.158Z,989.15
2017-12-31T07:44:14.154Z,989.17
2017-12-31T07:45:14.152Z,989.13
2017-12-31T07:46:14.166Z,989.15
2017-12-31T07:47:14.146Z,989.16
2017-12-31T07:48:14.145Z,989.15
2017-12-31T07:49:14.140Z,989.15
2017-12-31T07:50:14.138Z,989.11
2017-12-31T07:51:14.250Z,989.19
2017-12-31T07:52:14.208Z,989.16
2017-12-31T07:53:14.130Z,989.17
2017-12-31T07:54:14.128Z,989.16
2017-12-31T07:55:14.126Z,989.14
2017-12-31T07:56:14.121Z,989.18
2017-12-31T07:57:14.128Z,989.19
2017-12-31T07:58:14.115Z,989.12
2017-12-31T07:59:14.114Z,989.15
2017-12-31T08:00:14.112Z,989.21
2017-12-31T08:01:14.108Z,989.20
2017-12-31T08:02:14.109Z,989.22
2017-12-31T08:03:14.104Z,989.24
2017-12-31T08:04:14.102Z,989.22
2017-12-31T08:05:14.097Z,989.19
2017-12-31T08:06:14.100Z,989.21
2017-12-31T08:07:14.093Z,989.23
2017-12-31T08:08:14.090Z,989.23
2017-12-31T08:09:14.087Z,989.23
2017-12-31T08:10:14.086Z,989.28
2017-12-31T08:11:14.084Z,989.29
2017-12-31T08:12:14.079Z,989.31
2017-12-31T08:13:14.080Z,989.29
2017-12-31T08:14:14.076Z,989.25
2017-12-31T08:15:14.074Z,989.27
2017-12-31T08:16:14.070Z,989.32
2017-12-31T08:17:14.066Z,989.27
2017-12-31T08:18:14.066Z,989.29
2017-12-31T08:19:14.065Z,989.30
2017-12-31T08:20:14.060Z,989.29
2017-12-31T08:21:14.059Z,989.27
2017-12-31T08:22:14.054Z,989.30
2017-12-31T08:23:14.051Z,989.26
2017-12-31T08:24:14.049Z,989.33
2017-12-31T08:25:14.048Z,989.25
2017-12-31T08:26:14.046Z,989.26
2017-12-31T08:27:14.042Z,989.31
2017-12-31T08:28:14.040Z,989.27
2017-12-31T08:29:14.038Z,989.26
2017-12-31T08:30:14.036Z,989.32
2017-12-31T08:31:14.033Z,989.31
2017-12-31T08:32:14.030Z,989.32
2017-12-31T08:33:14.030Z,989.34
2017-12-31T08:34:14.029Z,989.37
2017-12-31T08:35:14.071Z,989.34
2017-12-31T08:36:14.022Z,989.39
2017-12-31T08:37:14.025Z,989.34
2017-12-31T08:38:14.020Z,989.38
2017-12-31T08:39:14.016Z,989.37
2017-12-31T08:40:14.014Z,989.41
2017-12-31T08:41:14.012Z,989.44
2017-12-31T08:42:14.040Z,989.43
2017-12-31T08:43:14.015Z,989.43
2017-12-31T08:44:14.017Z,989.49
2017-12-31T08:45:14.004Z,989.51
2017-12-31T08:46:14.008Z,989.50
2017-12-31T08:47:14.002Z,989.47
2017-12-31T08:48:13.998Z,989.51
2017-12-31T08:49:14.003Z,989.44
2017-12-31T08:50:13.995Z,989.52
2017-12-31T08:51:13.994Z,989.46
2017-12-31T08:52:13.993Z,989.51
2017-12-31T08:53:13.991Z,989.57
2017-12-31T08:54:14.016Z,989.53
2017-12-31T08:55:13.990Z,989.58
2017-12-31T08:56:13.986Z,989.60
2017-12-31T08:57:13.994Z,989.66
2017-12-31T08:58:13.990Z,989.64
2017-12-31T08:59:13.982Z,989.68
2017-12-31T09:00:13.976Z,989.70
2017-12-31T09:01:13.976Z,989.75
2017-12-31T09:02:13.982Z,989.76
2017-12-31T09:03:13.974Z,989.71
2017-12-31T09:04:13.976Z,989.75
2017-12-31T09:05:13.972Z,989.75
2017-12-31T09:06:13.981Z,989.78
2017-12-31T09:07:13.968Z,989.76
2017-12-31T09:08:13.965Z,989.72
2017-12-31T09:09:13.965Z,989.75
2017-12-31T09:10:13.965Z,989.75
2017-12-31T09:11:13.964Z,989.73
2017-12-31T09:12:13.959Z,989.76
2017-12-31T09:13:13.957Z,989.79
2017-12-31T09:14:13.963Z,989.75
2017-12-31T09:15:13.955Z,989.69
2017-12-31T09:16:13.957Z,989.69
2017-12-31T09:17:13.953Z,989.76
2017-12-31T09:18:13.954Z,989.73
2017-12-31T09:19:13.950Z,989.73
2017-12-31T09:20:13.952Z,989.75
2017-12-31T09:21:13.987Z,989.72
2017-12-31T09:22:13.948Z,989.72
2017-12-31T09:23:13.952Z,989.75
2017-12-31T09:24:13.944Z,989.72
2017-12-31T09:25:13.945Z,989.74
2017-12-31T09:26:13.946Z,989.74
2017-12-31T09:27:13.940Z,989.68
2017-12-31T09:28:13.940Z,989.64
2017-12-31T09:29:13.939Z,989.66
2017-12-31T09:30:13.938Z,989.61
2017-12-31T09:31:13.935Z,989.70
2017-12-31T09:32:13.936Z,989.65
2017-12-31T09:33:13.941Z,989.64
2017-12-31T09:34:13.933Z,989.66
2017-12-31T09:35:13.968Z,989.61
2017-12-31T09:36:13.931Z,989.54
2017-12-31T09:37:13.928Z,989.66
2017-12-31T09:38:13.928Z,989.64
2017-12-31T09:39:13.929Z,989.67
2017-12-31T09:40:13.925Z,989.62
2017-12-31T09:41:13.925Z,989.69
2017-12-31T09:42:13.932Z,989.65
2017-12-31T09:43:13.923Z,989.68
2017-12-31T09:44:13.921Z,989.64
2017-12-31T09:45:13.923Z,989.72
2017-12-31T09:46:13.922Z,989.66
2017-12-31T09:47:13.920Z,989.72
2017-12-31T09:48:13.917Z,989.67
2017-12-31T09:49:13.921Z,989.76
2017-12-31T09:50:13.923Z,989.62
2017-12-31T09:51:13.920Z,989.69
2017-12-31T09:52:13.915Z,989.65
2017-12-31T09:53:13.920Z,989.69
2017-12-31T09:54:13.914Z,989.61
2017-12-31T09:55:13.913Z,989.66
2017-12-31T09:56:13.911Z,989.64
2017-12-31T09:57:13.911Z,989.63
2017-12-31T09:58:13.910Z,989.65
2017-12-31T09:59:13.910Z,989.62
2017-12-31T10:00:13.918Z,989.59
2017-12-31T10:01:13.908Z,989.58
2017-12-31T10:02:13.916Z,989.60
2017-12-31T10:03:13.907Z,989.56
2017-12-31T10:04:13.907Z,989.65
2017-12-31T10:05:13.967Z,989.69
2017-12-31T10:06:13.906Z,989.65
2017-12-31T10:07:13.907Z,989.60
2017-12-31T10:08:13.905Z,989.57
2017-12-31T10:09:14.757Z,989.65
2017-12-31T10:10:13.905Z,989.64
2017-12-31T10:11:13.906Z,989.59
2017-12-31T10:12:13.902Z,989.66
2017-12-31T10:13:13.900Z,989.66
2017-12-31T10:14:13.901Z,989.63
2017-12-31T10:15:13.904Z,989.58
2017-12-31T10:16:14.252Z,989.62
2017-12-31T10:17:13.901Z,989.59
2017-12-31T10:18:14.943Z,989.59
2017-12-31T10:19:14.941Z,989.60
2017-12-31T10:20:14.205Z,989.67
2017-12-31T10:21:14.192Z,989.67
2017-12-31T10:22:14.087Z,989.59
2017-12-31T10:23:14.059Z,989.67
2017-12-31T10:24:13.896Z,989.63
2017-12-31T10:25:13.897Z,989.62
2017-12-31T10:26:13.902Z,989.62
2017-12-31T10:27:13.897Z,989.64
2017-12-31T10:28:13.896Z,989.68
2017-12-31T10:29:13.894Z,989.66
2017-12-31T10:30:13.893Z,989.69
2017-12-31T10:31:13.894Z,989.59
2017-12-31T10:32:13.892Z,989.61
2017-12-31T10:33:13.891Z,989.59
2017-12-31T10:34:13.895Z,989.54
2017-12-31T10:35:13.893Z,989.53
2017-12-31T10:36:13.890Z,989.50
2017-12-31T10:37:13.915Z,989.58
2017-12-31T10:38:13.890Z,989.50
2017-12-31T10:39:13.894Z,989.56
2017-12-31T10:40:13.893Z,989.47
2017-12-31T10:41:13.888Z,989.44
2017-12-31T10:42:13.893Z,989.44
2017-12-31T10:43:13.889Z,989.46
2017-12-31T10:44:13.902Z,989.44
2017-12-31T10:45:13.890Z,989.43
2017-12-31T10:46:13.940Z,989.37
2017-12-31T10:47:13.889Z,989.29
2017-12-31T10:48:13.886Z,989.25
2017-12-31T10:49:13.891Z,989.26
2017-12-31T10:50:13.896Z,989.25
2017-12-31T10:51:13.926Z,989.26
2017-12-31T10:52:13.885Z,989.14
2017-12-31T10:53:13.885Z,989.12
2017-12-31T10:54:13.886Z,989.13
2017-12-31T10:55:13.885Z,989.07
2017-12-31T10:56:13.887Z,989.02
2017-12-31T10:57:13.888Z,989.06
2017-12-31T10:58:13.889Z,988.99
2017-12-31T10:59:13.886Z,988.97
2017-12-31T11:00:13.882Z,988.91
2017-12-31T11:01:13.882Z,988.96
2017-12-31T11:02:13.885Z,988.94
2017-12-31T11:03:13.884Z,988.98
2017-12-31T11:04:13.881Z,989.02
2017-12-31T11:05:13.881Z,988.93
2017-12-31T11:06:13.881Z,988.92
2017-12-31T11:07:13.880Z,988.91
2017-12-31T11:08:13.879Z,988.91
2017-12-31T11:09:13.880Z,988.98
2017-12-31T11:10:13.880Z,988.98
2017-12-31T11:11:13.880Z,989.00
2017-12-31T11:12:13.878Z,989.06
2017-12-31T11:13:13.884Z,989.05
2017-12-31T11:14:13.882Z,989.12
2017-12-31T11:15:13.878Z,989.07
2017-12-31T11:16:13.875Z,989.00
2017-12-31T11:17:13.878Z,989.01
2017-12-31T11:18:13.880Z,989.08
2017-12-31T11:19:13.885Z,989.06
2017-12-31T11:20:13.876Z,989.01
2017-12-31T11:21:13.874Z,989.13
2017-12-31T11:22:13.876Z,989.00
2017-12-31T11:23:13.876Z,988.96
2017-12-31T11:24:13.876Z,988.98
2017-12-31T11:25:13.872Z,988.96
2017-12-31T11:26:13.875Z,988.90
2017-12-31T11:27:13.872Z,989.01
2017-12-31T11:28:13.872Z,988.93
2017-12-31T11:29:13.900Z,988.98
2017-12-31T11:30:13.870Z,989.02
2017-12-31T11:31:13.874Z,989.06
2017-12-31T11:32:13.868Z,989.05
2017-12-31T11:33:13.869Z,988.95
2017-12-31T11:34:13.871Z,988.94
2017-12-31T11:35:13.867Z,988.83
2017-12-31T11:36:13.866Z,988.96
2017-12-31T11:37:13.865Z,988.85
2017-12-31T11:38:13.866Z,988.86
2017-12-31T11:39:13.867Z,988.89
2017-12-31T11:40:13.863Z,988.93
2017-12-31T11:41:13.864Z,988.87
2017-12-31T11:42:13.865Z,988.87
2017-12-31T11:43:13.904Z,988.85
2017-12-31T11:44:13.861Z,988.81
2017-12-31T11:45:13.862Z,988.98
2017-12-31T11:46:13.861Z,988.96
2017-12-31T11:47:13.859Z,988.94
2017-12-31T11:48:13.860Z,988.90
2017-12-31T11:49:13.859Z,988.90
2017-12-31T11:50:13.859Z,988.93
2017-12-31T11:51:13.858Z,988.95
2017-12-31T11:52:14.150Z,988.83
2017-12-31T11:53:13.880Z,988.97
2017-12-31T11:54:13.899Z,988.92
2017-12-31T11:55:13.856Z,988.98
2017-12-31T11:56:13.854Z,988.99
2017-12-31T11:57:13.855Z,989.03
2017-12-31T11:58:13.854Z,989.05
2017-12-31T11:59:13.854Z,989.04
2017-12-31T12:00:13.876Z,989.06
2017-12-31T12:01:13.858Z,988.91
2017-12-31T12:02:13.858Z,989.03
2017-12-31T12:03:13.851Z,989.03
2017-12-31T12:04:13.850Z,989.04
2017-12-31T12:05:13.850Z,989.02
2017-12-31T12:06:13.851Z,989.02
2017-12-31T12:07:13.852Z,989.11
2017-12-31T12:08:13.845Z,989.02
2017-12-31T12:09:13.846Z,988.98
2017-12-31T12:10:13.846Z,989.05
2017-12-31T12:11:13.857Z,989.04
2017-12-31T12:12:13.847Z,989.12
2017-12-31T12:13:13.849Z,989.06
2017-12-31T12:14:13.844Z,989.05
2017-12-31T12:15:13.858Z,989.03
2017-12-31T12:16:13.889Z,988.97
2017-12-31T12:17:13.855Z,988.98
2017-12-31T12:18:13.840Z,989.02
2017-12-31T12:19:13.841Z,989.08
2017-12-31T12:20:13.841Z,989.04
2017-12-31T12:21:13.841Z,989.13
2017-12-31T12:22:14.750Z,989.19
2017-12-31T12:23:13.855Z,989.11
2017-12-31T12:24:13.941Z,989.14
2017-12-31T12:25:14.307Z,989.18
2017-12-31T12:26:14.529Z,989.13
2017-12-31T12:27:13.864Z,989.22
2017-12-31T12:28:14.131Z,989.26